• Join FlightAware (Why Join?)
  • Login
  • US Flag 
03:36PM EST


 

Airport Tracker/Info


-or-


 

Live Flight TrackerFlight Track Log ✈ DAL3865 ✈ 05-Oct-2013 ✈ KJFK - CYUL

Flight Track Log - Related Links

Times and Time Zones

All times are in EDT time to prevent confusion due to time zone crossing. See the DAL3865 flight status page for this flight to view local times or setup timezone preferences in your user account.

Time Position Orientation Groundspeed Altitude Reporting Facility
EDT Latitude Longitude Course Direction KTS MPH feet Rate Location/Type
02:42PM 40.6667 -73.7167 340° North 191 220 2,100  Level New York TRACON
02:43PM 40.6667 -73.6333 90° East 245 282 3,900 2,315 Climbing New York TRACON
02:46PM 40.7719 -73.4953 45° Northeast 281 323 9,200 2,205 Climbing Boston Center
02:47PM 40.8269 -73.4139 48° Northeast 287 330 10,700 1,475 Climbing Boston Center
02:48PM 41.2186 -73.7747 340° North  Level Estimated
02:48PM 40.9147 -73.3683 21° North 313 360 12,200  Level Boston Center
02:49PM 41.0128 -73.3644 North 324 373 14,100 1,785 Climbing Boston Center
02:50PM 41.1233 -73.3522 North 351 404 15,800 1,587 Climbing Boston Center
02:51PM 41.2172 -73.3425 North 367 422 17,300 1,424 Climbing Boston Center
02:52PM 41.3339 -73.3331 North 373 429 18,600 1,059 Climbing Boston Center
02:53PM 41.4300 -73.3206 North 379 436 19,400 942 Climbing Boston Center
02:54PM 41.5264 -73.2581 26° Northeast 379 436 20,500 1,059 Climbing Boston Center
02:55PM 41.6267 -73.2039 22° Northeast 378 435 21,500 1,008 Climbing Boston Center
02:56PM 41.7331 -73.2133 356° North 378 435 22,500 992 Climbing Boston Center
02:57PM 41.8433 -73.2258 355° North 378 435 23,500 992 Climbing Boston Center
02:58PM 41.9494 -73.2383 355° North 384 442 24,500 1,000 Climbing Boston Center
02:59PM 42.0558 -73.2481 356° North 389 448 25,500 893 Climbing Boston Center
03:00PM 42.1619 -73.2608 355° North 389 448 26,300 706 Climbing Boston Center
03:01PM 42.2703 -73.2706 356° North 384 442 26,900 356 Climbing Boston Center
03:02PM 42.3847 -73.2722 359° North 391 450 27,000 50 Climbing Boston Center
03:03PM 42.4953 -73.2878 354° North 396 456 27,000  Level Boston Center
03:04PM 42.6183 -73.2639 North 401 461 27,000  Level Boston Center
03:05PM 42.7311 -73.2117 19° North 408 470 27,000  Level Boston Center
03:06PM 42.8439 -73.1792 12° North 413 475 27,000  Level Boston Center
03:07PM 42.9522 -73.2003 352° North 405 466 27,000  Level Boston Center
03:08PM 43.0625 -73.2217 352° North 399 459 27,000  Level Boston Center
03:09PM 43.1728 -73.2400 353° North 399 459 27,000  Level Boston Center
03:10PM 43.2831 -73.2644 351° North 399 459 27,000  Level Boston Center
03:11PM 43.3914 -73.2800 354° North 399 459 27,000  Level Boston Center
03:12PM 43.4872 -73.2956 353° North 387 445 27,000  Level Boston Center
03:13PM 43.5953 -73.3144 353° North 387 445 27,000  Level Boston Center
03:14PM 43.7056 -73.3419 350° North 387 445 27,000  Level Boston Center
03:15PM 43.8181 -73.3608 353° North 392 451 27,000  Level Boston Center
03:16PM 43.9303 -73.3828 352° North 392 451 27,000  Level Boston Center
03:17PM 44.0406 -73.4047 352° North 397 457 27,000 -864 Level Boston Center
03:18PM 44.1675 -73.4242 354° North 412 474 25,300 -1,627 Descending Boston Center
03:19PM 44.2672 -73.4461 351° North 412 474 23,800 -1,770 Descending Boston Center
03:20PM 44.3858 -73.4683 352° North 400 460 21,700 -1,770 Descending Boston Center
03:21PM 44.4794 -73.4847 353° North 384 442 20,200 -1,636 Descending Boston Center
03:22PM 44.5814 -73.5039 352° North 374 430 18,400 -1,729 Descending Boston Center
03:23PM 44.6811 -73.5231 352° North 369 425 16,800 -1,729 Descending Boston Center
03:24PM 44.7769 -73.5367 354° North 369 425 15,000 -1,623 Descending Boston Center
03:25PM 44.8853 -73.5475 356° North 364 419 13,500 -1,514 Descending Boston Center
03:25PM 44.9667 -73.5500 359° North 350 403 12,200 -1,486 Descending Montreal Center
03:26PM 45.0333 -73.6000 332° Northwest 290 334 10,800 -1,500 Descending Montreal Center
03:27PM 45.0833 -73.6667 317° Northwest 260 299 9,200 -1,650 Descending Montreal Center
03:28PM 45.1333 -73.7333 317° Northwest 250 288 7,500 -1,450 Descending Montreal Center
03:29PM 45.1667 -73.8000 305° West 230 265 6,300 -1,200 Descending Montreal Center
03:30PM 45.2167 -73.8833 310° West 230 265 5,100 -1,300 Descending Montreal Center
03:31PM 45.2500 -73.9500 305° West 220 253 3,700 -1,000 Descending Montreal Center
03:32PM 45.3000 -73.9500 360° North 180 207 3,100 -400 Descending Montreal Center
03:33PM 45.3333 -73.9000 47° Northeast 170 196 2,900 -500 Descending Montreal Center
03:34PM 45.3667 -73.8500 46° Northeast 160 184 2,100 -800 Descending Montreal Center
03:35PM 45.4000 -73.8167 35° Northeast 140 161 1,300 -750 Descending Montreal Center
03:36PM 45.4333 -73.7667 46° Northeast 130 150 600 -600 Descending Montreal Center
03:37PM 45.4500 -73.7500 35° Northeast 110 127 100 -250 Descending Montreal Center
03:38PM 45.4500 -73.7167 90° East 10 12 100  Level Montreal Center
03:41PM 45.4500 -73.7500 270° West 20 23 100  Level Montreal Center